Airfield :
LOGIN :

Register | Disclaimer

   EN    FR    IT 

 










Legend :    VFR   Marginal VFR   IFR   Intensive IFR   Very Intensive IFR
Visi :
Ceiling :
>= 8 km
>= 3000ft
5 to 8 km
1000 to 3000 ft
1500m to 5 km
500 to 1000 ft
800 to 1500m
200 to 500 ft
< 800m
< 200 ft
Symbols :   Thunderstorms  Fog  Heavy snow  Heavy precipitations  Wind > 20 kt
SIGMETs :     Misc.  Thunderstorms  Icing  Turbulence  Mountain Waves  Volcanic Ashes







- Airport Elevation : 375 ft
- IATA code : MST


EHBK - Maastricht Aachen

CURRENT METAR :
  • 210725Z AUTO 10005KT 9999 OVC031 03/01 Q1013 NOSIG

EXPIRED METARs :
  • 210655Z AUTO 09005KT 9999 BKN022 OVC031 03/01 Q1013 NOSIG
  • 210625Z AUTO 10005KT 9999 FEW015CB OVC020 03/01 Q1012 NOSIG
  • 210555Z AUTO 09005KT 9999 FEW015CB OVC021 03/01 Q1012 NOSIG
  • 210525Z AUTO 09005KT 9999 OVC024 03/01 Q1012 NOSIG
  • 210455Z AUTO 09004KT 060V120 9999 -DZ FEW015CB SCT023 03/01 Q1011 REDZ NOSIG
  • 210425Z AUTO 09006KT 9999 FEW015CB SCT040 03/01 Q1011

TAF TAF EHBK
Valid from the 21 at 06:00 until the 22 at 12:00 UTC


210446Z 2106/2212 08006KT CAVOK
BECMG 2122/2201 6000
PROB40 2201/2208 4000 BR
BECMG 2209/2211 CAVOK
No reported NOTAMs for that airfield.



MET'MAP, your aeronautical weather chart ! - Copyright ORBIFLY December 2007 - Disclaimer

ORBIFLY MET'MAP TEAM :

Programming & Development : Alexandra Zaïnal
Concept & Development : Baudouin d'Aumeries
Co-Development & Prog : Marc-Olivier Méhu
Technical & hardware support : Manuel Goepfert

Contact : metmap@orbifly.com




SOURCES & CREDITS :

   NOAA